sensor_id;sensor_type;location;lat;lon;timestamp;P1;durP1;ratioP1;P2;durP2;ratioP2
4634;SDS011;2330;48.158;11.816;2023-09-19T00:00:43;4.33;;;1.40;;
4634;SDS011;2330;48.158;11.816;2023-09-19T00:03:14;1.33;;;1.10;;
4634;SDS011;2330;48.158;11.816;2023-09-19T00:05:41;1.40;;;1.30;;
4634;SDS011;2330;48.158;11.816;2023-09-19T00:08:12;2.47;;;1.60;;
4634;SDS011;2330;48.158;11.816;2023-09-19T00:10:40;1.87;;;1.43;;
4634;SDS011;2330;48.158;11.816;2023-09-19T00:13:08;2.10;;;1.40;;
4634;SDS011;2330;48.158;11.816;2023-09-19T00:15:42;4.87;;;1.70;;
4634;SDS011;2330;48.158;11.816;2023-09-19T00:18:19;1.97;;;1.10;;
4634;SDS011;2330;48.158;11.816;2023-09-19T00:20:49;1.40;;;1.30;;
4634;SDS011;2330;48.158;11.816;2023-09-19T00:23:18;2.57;;;1.23;;
4634;SDS011;2330;48.158;11.816;2023-09-19T00:25:46;1.10;;;1.00;;
4634;SDS011;2330;48.158;11.816;2023-09-19T00:28:12;2.27;;;1.63;;
4634;SDS011;2330;48.158;11.816;2023-09-19T00:30:42;3.47;;;1.60;;
4634;SDS011;2330;48.158;11.816;2023-09-19T00:33:10;1.40;;;1.20;;
4634;SDS011;2330;48.158;11.816;2023-09-19T00:35:37;5.43;;;1.20;;
4634;SDS011;2330;48.158;11.816;2023-09-19T00:38:04;1.97;;;1.50;;
4634;SDS011;2330;48.158;11.816;2023-09-19T00:40:33;3.33;;;1.63;;
4634;SDS011;2330;48.158;11.816;2023-09-19T00:43:01;1.60;;;1.50;;
4634;SDS011;2330;48.158;11.816;2023-09-19T00:45:28;1.83;;;1.30;;
4634;SDS011;2330;48.158;11.816;2023-09-19T00:47:55;1.63;;;1.10;;
4634;SDS011;2330;48.158;11.816;2023-09-19T00:50:24;2.30;;;1.30;;
4634;SDS011;2330;48.158;11.816;2023-09-19T00:52:53;2.70;;;1.73;;
4634;SDS011;2330;48.158;11.816;2023-09-19T00:55:24;3.33;;;1.20;;
4634;SDS011;2330;48.158;11.816;2023-09-19T00:57:52;1.93;;;1.10;;
4634;SDS011;2330;48.158;11.816;2023-09-19T01:00:22;1.50;;;1.20;;
4634;SDS011;2330;48.158;11.816;2023-09-19T01:02:50;5.03;;;1.13;;
4634;SDS011;2330;48.158;11.816;2023-09-19T01:05:17;2.93;;;1.00;;
4634;SDS011;2330;48.158;11.816;2023-09-19T01:07:44;1.10;;;1.00;;
4634;SDS011;2330;48.158;11.816;2023-09-19T01:10:12;1.30;;;1.07;;
4634;SDS011;2330;48.158;11.816;2023-09-19T01:18:02;2.70;;;1.50;;
4634;SDS011;2330;48.158;11.816;2023-09-19T01:20:50;3.10;;;1.80;;
4634;SDS011;2330;48.158;11.816;2023-09-19T01:24:10;1.77;;;1.27;;
4634;SDS011;2330;48.158;11.816;2023-09-19T01:27:06;1.30;;;1.20;;
4634;SDS011;2330;48.158;11.816;2023-09-19T01:30:06;2.47;;;1.47;;
4634;SDS011;2330;48.158;11.816;2023-09-19T01:32:37;9.03;;;1.30;;
4634;SDS011;2330;48.158;11.816;2023-09-19T01:35:05;2.93;;;1.60;;
4634;SDS011;2330;48.158;11.816;2023-09-19T01:37:32;5.83;;;1.57;;
4634;SDS011;2330;48.158;11.816;2023-09-19T01:40:00;1.43;;;1.00;;
4634;SDS011;2330;48.158;11.816;2023-09-19T01:45:13;1.80;;;1.20;;
4634;SDS011;2330;48.158;11.816;2023-09-19T01:48:24;2.27;;;1.43;;
4634;SDS011;2330;48.158;11.816;2023-09-19T01:51:00;3.27;;;1.37;;
4634;SDS011;2330;48.158;11.816;2023-09-19T01:56:28;3.47;;;1.60;;
4634;SDS011;2330;48.158;11.816;2023-09-19T01:59:10;2.63;;;1.33;;
4634;SDS011;2330;48.158;11.816;2023-09-19T02:01:42;2.70;;;1.50;;
4634;SDS011;2330;48.158;11.816;2023-09-19T02:04:11;1.90;;;1.33;;
4634;SDS011;2330;48.158;11.816;2023-09-19T02:06:42;1.93;;;1.60;;
4634;SDS011;2330;48.158;11.816;2023-09-19T02:09:08;1.73;;;1.20;;
4634;SDS011;2330;48.158;11.816;2023-09-19T02:11:35;2.10;;;1.40;;
4634;SDS011;2330;48.158;11.816;2023-09-19T02:14:03;3.53;;;1.60;;
4634;SDS011;2330;48.158;11.816;2023-09-19T02:16:30;3.00;;;1.20;;
4634;SDS011;2330;48.158;11.816;2023-09-19T02:18:57;2.43;;;1.40;;
4634;SDS011;2330;48.158;11.816;2023-09-19T02:21:26;4.03;;;1.50;;
4634;SDS011;2330;48.158;11.816;2023-09-19T02:23:56;1.40;;;1.30;;
4634;SDS011;2330;48.158;11.816;2023-09-19T02:26:24;3.47;;;1.47;;
4634;SDS011;2330;48.158;11.816;2023-09-19T02:28:50;3.47;;;1.40;;
4634;SDS011;2330;48.158;11.816;2023-09-19T02:31:19;3.83;;;1.50;;
4634;SDS011;2330;48.158;11.816;2023-09-19T02:33:46;2.17;;;1.67;;
4634;SDS011;2330;48.158;11.816;2023-09-19T02:36:13;2.13;;;1.57;;
4634;SDS011;2330;48.158;11.816;2023-09-19T02:38:42;5.93;;;1.80;;
4634;SDS011;2330;48.158;11.816;2023-09-19T02:41:09;2.73;;;1.30;;
4634;SDS011;2330;48.158;11.816;2023-09-19T02:43:36;3.47;;;1.30;;
4634;SDS011;2330;48.158;11.816;2023-09-19T02:46:04;1.37;;;1.20;;
4634;SDS011;2330;48.158;11.816;2023-09-19T02:48:30;3.10;;;1.50;;
4634;SDS011;2330;48.158;11.816;2023-09-19T02:50:58;2.17;;;1.50;;
4634;SDS011;2330;48.158;11.816;2023-09-19T02:53:25;1.87;;;1.17;;
4634;SDS011;2330;48.158;11.816;2023-09-19T02:55:51;1.60;;;1.30;;
4634;SDS011;2330;48.158;11.816;2023-09-19T02:58:19;4.70;;;1.20;;
4634;SDS011;2330;48.158;11.816;2023-09-19T03:00:46;1.77;;;1.10;;
4634;SDS011;2330;48.158;11.816;2023-09-19T03:03:14;1.53;;;1.43;;
4634;SDS011;2330;48.158;11.816;2023-09-19T03:05:42;2.50;;;1.17;;
4634;SDS011;2330;48.158;11.816;2023-09-19T03:08:14;2.03;;;1.57;;
4634;SDS011;2330;48.158;11.816;2023-09-19T03:10:46;3.23;;;1.20;;
4634;SDS011;2330;48.158;11.816;2023-09-19T03:13:14;3.90;;;1.70;;
4634;SDS011;2330;48.158;11.816;2023-09-19T03:15:41;2.37;;;1.20;;
4634;SDS011;2330;48.158;11.816;2023-09-19T03:18:12;2.73;;;1.10;;
4634;SDS011;2330;48.158;11.816;2023-09-19T03:20:40;1.73;;;1.27;;
4634;SDS011;2330;48.158;11.816;2023-09-19T03:23:06;2.47;;;1.37;;
4634;SDS011;2330;48.158;11.816;2023-09-19T03:25:34;2.37;;;1.70;;
4634;SDS011;2330;48.158;11.816;2023-09-19T03:28:02;1.53;;;1.43;;
4634;SDS011;2330;48.158;11.816;2023-09-19T03:30:32;2.30;;;1.10;;
4634;SDS011;2330;48.158;11.816;2023-09-19T03:33:00;2.67;;;1.50;;
4634;SDS011;2330;48.158;11.816;2023-09-19T03:35:27;4.00;;;1.60;;
4634;SDS011;2330;48.158;11.816;2023-09-19T03:37:54;1.23;;;1.13;;
4634;SDS011;2330;48.158;11.816;2023-09-19T03:40:20;2.73;;;1.43;;
4634;SDS011;2330;48.158;11.816;2023-09-19T03:42:49;2.70;;;1.60;;
4634;SDS011;2330;48.158;11.816;2023-09-19T03:45:16;8.73;;;1.40;;
4634;SDS011;2330;48.158;11.816;2023-09-19T03:47:44;1.37;;;1.27;;
4634;SDS011;2330;48.158;11.816;2023-09-19T03:50:14;3.20;;;1.70;;
4634;SDS011;2330;48.158;11.816;2023-09-19T03:52:44;6.30;;;1.50;;
4634;SDS011;2330;48.158;11.816;2023-09-19T03:55:11;1.53;;;1.20;;
4634;SDS011;2330;48.158;11.816;2023-09-19T03:57:38;3.63;;;1.60;;
4634;SDS011;2330;48.158;11.816;2023-09-19T04:00:05;1.50;;;1.27;;
4634;SDS011;2330;48.158;11.816;2023-09-19T04:02:38;1.27;;;1.17;;
4634;SDS011;2330;48.158;11.816;2023-09-19T04:05:06;1.77;;;1.43;;
4634;SDS011;2330;48.158;11.816;2023-09-19T04:07:33;3.10;;;1.53;;
4634;SDS011;2330;48.158;11.816;2023-09-19T04:10:01;4.00;;;1.90;;
4634;SDS011;2330;48.158;11.816;2023-09-19T04:12:28;1.97;;;1.70;;
4634;SDS011;2330;48.158;11.816;2023-09-19T04:14:55;1.73;;;1.60;;
4634;SDS011;2330;48.158;11.816;2023-09-19T04:17:22;4.30;;;1.30;;
4634;SDS011;2330;48.158;11.816;2023-09-19T04:19:49;3.43;;;1.73;;
4634;SDS011;2330;48.158;11.816;2023-09-19T04:22:16;4.17;;;1.80;;
4634;SDS011;2330;48.158;11.816;2023-09-19T04:24:43;4.20;;;1.43;;
4634;SDS011;2330;48.158;11.816;2023-09-19T04:27:10;1.70;;;1.60;;
4634;SDS011;2330;48.158;11.816;2023-09-19T04:29:40;1.70;;;1.50;;
4634;SDS011;2330;48.158;11.816;2023-09-19T04:32:08;2.07;;;1.70;;
4634;SDS011;2330;48.158;11.816;2023-09-19T04:34:36;5.03;;;1.80;;
4634;SDS011;2330;48.158;11.816;2023-09-19T04:37:04;2.60;;;1.67;;
4634;SDS011;2330;48.158;11.816;2023-09-19T04:39:31;2.97;;;1.97;;
4634;SDS011;2330;48.158;11.816;2023-09-19T04:41:58;2.90;;;1.70;;
4634;SDS011;2330;48.158;11.816;2023-09-19T04:44:25;2.33;;;1.47;;
4634;SDS011;2330;48.158;11.816;2023-09-19T04:46:52;1.33;;;1.20;;
4634;SDS011;2330;48.158;11.816;2023-09-19T04:49:19;2.37;;;1.47;;
4634;SDS011;2330;48.158;11.816;2023-09-19T04:51:46;3.17;;;1.70;;
4634;SDS011;2330;48.158;11.816;2023-09-19T04:54:13;2.83;;;1.70;;
4634;SDS011;2330;48.158;11.816;2023-09-19T04:56:41;2.13;;;1.70;;
4634;SDS011;2330;48.158;11.816;2023-09-19T04:59:07;4.50;;;2.00;;
4634;SDS011;2330;48.158;11.816;2023-09-19T05:01:36;6.83;;;2.00;;
4634;SDS011;2330;48.158;11.816;2023-09-19T05:04:03;1.57;;;1.47;;
4634;SDS011;2330;48.158;11.816;2023-09-19T05:06:31;1.43;;;1.30;;
4634;SDS011;2330;48.158;11.816;2023-09-19T05:08:59;3.10;;;1.80;;
4634;SDS011;2330;48.158;11.816;2023-09-19T05:11:26;2.57;;;1.77;;
4634;SDS011;2330;48.158;11.816;2023-09-19T05:13:53;4.00;;;1.73;;
4634;SDS011;2330;48.158;11.816;2023-09-19T05:16:20;2.03;;;1.70;;
4634;SDS011;2330;48.158;11.816;2023-09-19T05:18:47;2.13;;;1.37;;
4634;SDS011;2330;48.158;11.816;2023-09-19T05:21:16;2.07;;;1.67;;
4634;SDS011;2330;48.158;11.816;2023-09-19T05:23:44;1.73;;;1.50;;
4634;SDS011;2330;48.158;11.816;2023-09-19T05:26:11;4.93;;;2.13;;
4634;SDS011;2330;48.158;11.816;2023-09-19T05:28:38;1.40;;;1.30;;
4634;SDS011;2330;48.158;11.816;2023-09-19T05:31:05;3.77;;;1.70;;
4634;SDS011;2330;48.158;11.816;2023-09-19T05:33:32;1.63;;;1.40;;
4634;SDS011;2330;48.158;11.816;2023-09-19T05:35:59;3.50;;;1.60;;
4634;SDS011;2330;48.158;11.816;2023-09-19T05:38:26;1.30;;;1.20;;
4634;SDS011;2330;48.158;11.816;2023-09-19T05:40:54;1.33;;;1.20;;
4634;SDS011;2330;48.158;11.816;2023-09-19T05:43:21;4.60;;;1.50;;
4634;SDS011;2330;48.158;11.816;2023-09-19T05:45:48;3.90;;;1.70;;
4634;SDS011;2330;48.158;11.816;2023-09-19T05:48:18;3.73;;;1.43;;
4634;SDS011;2330;48.158;11.816;2023-09-19T05:50:47;2.03;;;1.60;;
4634;SDS011;2330;48.158;11.816;2023-09-19T05:53:15;2.40;;;1.80;;
4634;SDS011;2330;48.158;11.816;2023-09-19T05:55:42;1.60;;;1.50;;
4634;SDS011;2330;48.158;11.816;2023-09-19T05:58:09;1.80;;;1.43;;
4634;SDS011;2330;48.158;11.816;2023-09-19T06:00:37;1.53;;;1.20;;
4634;SDS011;2330;48.158;11.816;2023-09-19T06:03:05;4.40;;;1.37;;
4634;SDS011;2330;48.158;11.816;2023-09-19T06:05:32;4.03;;;1.40;;
4634;SDS011;2330;48.158;11.816;2023-09-19T06:07:59;2.83;;;1.63;;
4634;SDS011;2330;48.158;11.816;2023-09-19T06:10:27;2.00;;;1.37;;
4634;SDS011;2330;48.158;11.816;2023-09-19T06:12:54;1.73;;;1.40;;
4634;SDS011;2330;48.158;11.816;2023-09-19T06:15:21;1.90;;;1.30;;
4634;SDS011;2330;48.158;11.816;2023-09-19T06:17:52;3.53;;;1.17;;
4634;SDS011;2330;48.158;11.816;2023-09-19T06:20:24;2.10;;;1.30;;
4634;SDS011;2330;48.158;11.816;2023-09-19T06:22:53;1.37;;;1.00;;
4634;SDS011;2330;48.158;11.816;2023-09-19T06:25:20;3.73;;;1.60;;
4634;SDS011;2330;48.158;11.816;2023-09-19T06:27:50;2.23;;;1.40;;
4634;SDS011;2330;48.158;11.816;2023-09-19T06:30:22;2.73;;;1.67;;
4634;SDS011;2330;48.158;11.816;2023-09-19T06:32:56;1.60;;;1.50;;
4634;SDS011;2330;48.158;11.816;2023-09-19T06:35:24;2.07;;;1.30;;
4634;SDS011;2330;48.158;11.816;2023-09-19T06:37:52;4.90;;;1.70;;
4634;SDS011;2330;48.158;11.816;2023-09-19T06:40:19;1.37;;;1.10;;
4634;SDS011;2330;48.158;11.816;2023-09-19T06:42:49;4.50;;;1.40;;
4634;SDS011;2330;48.158;11.816;2023-09-19T06:45:19;4.67;;;1.47;;
4634;SDS011;2330;48.158;11.816;2023-09-19T06:47:46;1.73;;;1.33;;
4634;SDS011;2330;48.158;11.816;2023-09-19T06:50:20;1.43;;;1.20;;
4634;SDS011;2330;48.158;11.816;2023-09-19T06:52:52;2.30;;;1.40;;
4634;SDS011;2330;48.158;11.816;2023-09-19T06:55:21;2.23;;;1.13;;
4634;SDS011;2330;48.158;11.816;2023-09-19T06:57:51;2.20;;;1.67;;
4634;SDS011;2330;48.158;11.816;2023-09-19T07:00:20;1.90;;;0.93;;
4634;SDS011;2330;48.158;11.816;2023-09-19T07:03:09;1.50;;;1.40;;
4634;SDS011;2330;48.158;11.816;2023-09-19T07:05:40;2.60;;;1.60;;
4634;SDS011;2330;48.158;11.816;2023-09-19T07:08:07;3.83;;;1.60;;
4634;SDS011;2330;48.158;11.816;2023-09-19T07:10:37;3.83;;;1.07;;
4634;SDS011;2330;48.158;11.816;2023-09-19T07:13:08;4.10;;;1.20;;
4634;SDS011;2330;48.158;11.816;2023-09-19T07:15:38;1.67;;;1.37;;
4634;SDS011;2330;48.158;11.816;2023-09-19T07:18:08;1.57;;;1.20;;
4634;SDS011;2330;48.158;11.816;2023-09-19T07:20:37;1.73;;;1.00;;
4634;SDS011;2330;48.158;11.816;2023-09-19T07:23:04;1.43;;;1.10;;
4634;SDS011;2330;48.158;11.816;2023-09-19T07:25:32;1.47;;;1.00;;
4634;SDS011;2330;48.158;11.816;2023-09-19T07:27:59;1.80;;;1.30;;
4634;SDS011;2330;48.158;11.816;2023-09-19T07:30:26;2.03;;;1.07;;
4634;SDS011;2330;48.158;11.816;2023-09-19T07:32:54;2.33;;;1.40;;
4634;SDS011;2330;48.158;11.816;2023-09-19T07:35:21;1.43;;;1.20;;
4634;SDS011;2330;48.158;11.816;2023-09-19T07:37:49;4.17;;;3.80;;
4634;SDS011;2330;48.158;11.816;2023-09-19T07:40:17;7.80;;;4.73;;
4634;SDS011;2330;48.158;11.816;2023-09-19T07:42:44;5.20;;;4.70;;
4634;SDS011;2330;48.158;11.816;2023-09-19T07:45:13;5.23;;;4.33;;
4634;SDS011;2330;48.158;11.816;2023-09-19T07:47:43;4.33;;;3.50;;
4634;SDS011;2330;48.158;11.816;2023-09-19T07:50:12;7.33;;;6.63;;
4634;SDS011;2330;48.158;11.816;2023-09-19T07:52:39;6.10;;;2.43;;
4634;SDS011;2330;48.158;11.816;2023-09-19T07:55:06;1.30;;;1.13;;
4634;SDS011;2330;48.158;11.816;2023-09-19T07:57:37;3.73;;;3.37;;
4634;SDS011;2330;48.158;11.816;2023-09-19T08:00:04;2.33;;;1.87;;
4634;SDS011;2330;48.158;11.816;2023-09-19T08:02:36;2.90;;;1.30;;
4634;SDS011;2330;48.158;11.816;2023-09-19T08:05:10;1.27;;;1.10;;
4634;SDS011;2330;48.158;11.816;2023-09-19T08:07:39;1.53;;;1.20;;
4634;SDS011;2330;48.158;11.816;2023-09-19T08:10:07;3.20;;;1.17;;
4634;SDS011;2330;48.158;11.816;2023-09-19T08:12:34;1.30;;;1.00;;
4634;SDS011;2330;48.158;11.816;2023-09-19T08:15:12;2.40;;;1.40;;
4634;SDS011;2330;48.158;11.816;2023-09-19T08:17:43;1.40;;;1.17;;
4634;SDS011;2330;48.158;11.816;2023-09-19T08:20:10;1.40;;;1.30;;
4634;SDS011;2330;48.158;11.816;2023-09-19T08:22:51;1.70;;;1.10;;
4634;SDS011;2330;48.158;11.816;2023-09-19T08:25:21;2.40;;;1.20;;
4634;SDS011;2330;48.158;11.816;2023-09-19T08:27:49;4.27;;;1.03;;
4634;SDS011;2330;48.158;11.816;2023-09-19T08:30:16;5.07;;;0.90;;
4634;SDS011;2330;48.158;11.816;2023-09-19T08:32:44;3.37;;;1.03;;
4634;SDS011;2330;48.158;11.816;2023-09-19T08:35:12;0.80;;;0.70;;
4634;SDS011;2330;48.158;11.816;2023-09-19T08:37:41;0.90;;;0.80;;
4634;SDS011;2330;48.158;11.816;2023-09-19T08:40:09;4.67;;;1.00;;
4634;SDS011;2330;48.158;11.816;2023-09-19T08:42:52;5.63;;;1.37;;
4634;SDS011;2330;48.158;11.816;2023-09-19T08:45:21;4.67;;;1.10;;
4634;SDS011;2330;48.158;11.816;2023-09-19T08:47:52;3.00;;;1.20;;
4634;SDS011;2330;48.158;11.816;2023-09-19T08:50:31;2.63;;;1.40;;
4634;SDS011;2330;48.158;11.816;2023-09-19T08:53:10;1.83;;;1.57;;
4634;SDS011;2330;48.158;11.816;2023-09-19T08:55:41;2.07;;;1.10;;
4634;SDS011;2330;48.158;11.816;2023-09-19T08:58:11;1.63;;;1.20;;
4634;SDS011;2330;48.158;11.816;2023-09-19T09:00:41;1.10;;;0.90;;
4634;SDS011;2330;48.158;11.816;2023-09-19T09:03:11;2.63;;;1.20;;
4634;SDS011;2330;48.158;11.816;2023-09-19T09:05:41;1.10;;;1.00;;
4634;SDS011;2330;48.158;11.816;2023-09-19T09:08:12;3.67;;;1.20;;
4634;SDS011;2330;48.158;11.816;2023-09-19T09:10:40;1.20;;;1.10;;
4634;SDS011;2330;48.158;11.816;2023-09-19T09:13:07;1.37;;;0.90;;
4634;SDS011;2330;48.158;11.816;2023-09-19T09:15:36;1.33;;;0.97;;
4634;SDS011;2330;48.158;11.816;2023-09-19T09:18:03;1.40;;;1.20;;
4634;SDS011;2330;48.158;11.816;2023-09-19T09:20:33;1.43;;;1.07;;
4634;SDS011;2330;48.158;11.816;2023-09-19T09:23:00;3.20;;;1.17;;
4634;SDS011;2330;48.158;11.816;2023-09-19T09:28:35;1.10;;;1.00;;
4634;SDS011;2330;48.158;11.816;2023-09-19T09:31:22;5.67;;;0.97;;
4634;SDS011;2330;48.158;11.816;2023-09-19T09:33:54;1.70;;;1.03;;
4634;SDS011;2330;48.158;11.816;2023-09-19T09:36:34;1.90;;;1.07;;
4634;SDS011;2330;48.158;11.816;2023-09-19T09:39:03;4.07;;;1.00;;
4634;SDS011;2330;48.158;11.816;2023-09-19T09:41:42;1.30;;;1.00;;
4634;SDS011;2330;48.158;11.816;2023-09-19T09:44:12;2.20;;;0.80;;
4634;SDS011;2330;48.158;11.816;2023-09-19T09:46:42;1.17;;;1.10;;
4634;SDS011;2330;48.158;11.816;2023-09-19T09:49:21;1.90;;;0.90;;
4634;SDS011;2330;48.158;11.816;2023-09-19T09:52:00;1.03;;;0.80;;
4634;SDS011;2330;48.158;11.816;2023-09-19T09:54:37;1.07;;;0.97;;
4634;SDS011;2330;48.158;11.816;2023-09-19T09:57:05;1.10;;;1.00;;
4634;SDS011;2330;48.158;11.816;2023-09-19T10:02:18;2.73;;;1.13;;
4634;SDS011;2330;48.158;11.816;2023-09-19T10:04:56;1.43;;;1.13;;
4634;SDS011;2330;48.158;11.816;2023-09-19T10:07:55;1.63;;;1.20;;
4634;SDS011;2330;48.158;11.816;2023-09-19T10:10:31;2.90;;;1.23;;
4634;SDS011;2330;48.158;11.816;2023-09-19T10:13:20;5.23;;;1.00;;
4634;SDS011;2330;48.158;11.816;2023-09-19T10:15:51;2.53;;;1.20;;
4634;SDS011;2330;48.158;11.816;2023-09-19T10:18:20;1.60;;;0.80;;
4634;SDS011;2330;48.158;11.816;2023-09-19T10:20:51;1.50;;;1.03;;
4634;SDS011;2330;48.158;11.816;2023-09-19T10:23:19;2.27;;;1.30;;
4634;SDS011;2330;48.158;11.816;2023-09-19T10:25:52;1.23;;;1.03;;
4634;SDS011;2330;48.158;11.816;2023-09-19T10:28:20;1.47;;;1.37;;
4634;SDS011;2330;48.158;11.816;2023-09-19T10:30:49;2.00;;;1.37;;
4634;SDS011;2330;48.158;11.816;2023-09-19T10:33:18;1.40;;;0.90;;
4634;SDS011;2330;48.158;11.816;2023-09-19T10:35:47;1.70;;;1.10;;
4634;SDS011;2330;48.158;11.816;2023-09-19T10:38:18;1.60;;;0.90;;
4634;SDS011;2330;48.158;11.816;2023-09-19T10:40:51;2.77;;;1.20;;
4634;SDS011;2330;48.158;11.816;2023-09-19T10:43:20;2.90;;;1.17;;
4634;SDS011;2330;48.158;11.816;2023-09-19T10:45:49;1.33;;;1.23;;
4634;SDS011;2330;48.158;11.816;2023-09-19T10:48:18;1.93;;;1.17;;
4634;SDS011;2330;48.158;11.816;2023-09-19T10:50:51;3.70;;;1.17;;
4634;SDS011;2330;48.158;11.816;2023-09-19T10:53:18;1.40;;;1.13;;
4634;SDS011;2330;48.158;11.816;2023-09-19T10:55:52;2.13;;;1.60;;
4634;SDS011;2330;48.158;11.816;2023-09-19T10:58:27;1.47;;;1.00;;
4634;SDS011;2330;48.158;11.816;2023-09-19T11:01:03;1.53;;;1.23;;
4634;SDS011;2330;48.158;11.816;2023-09-19T11:03:39;1.20;;;0.90;;
4634;SDS011;2330;48.158;11.816;2023-09-19T11:06:12;3.63;;;1.13;;
4634;SDS011;2330;48.158;11.816;2023-09-19T11:11:38;2.10;;;1.30;;
4634;SDS011;2330;48.158;11.816;2023-09-19T11:17:29;5.73;;;1.40;;
4634;SDS011;2330;48.158;11.816;2023-09-19T11:30:44;1.50;;;1.30;;
4634;SDS011;2330;48.158;11.816;2023-09-19T11:33:15;2.60;;;1.40;;
4634;SDS011;2330;48.158;11.816;2023-09-19T11:36:11;3.00;;;1.20;;
4634;SDS011;2330;48.158;11.816;2023-09-19T11:43:48;1.57;;;0.90;;
4634;SDS011;2330;48.158;11.816;2023-09-19T11:46:21;2.13;;;1.23;;
4634;SDS011;2330;48.158;11.816;2023-09-19T11:48:48;1.57;;;0.90;;
4634;SDS011;2330;48.158;11.816;2023-09-19T11:51:17;9.70;;;1.87;;
4634;SDS011;2330;48.158;11.816;2023-09-19T11:53:54;1.20;;;0.90;;
4634;SDS011;2330;48.158;11.816;2023-09-19T11:56:27;1.33;;;1.00;;
4634;SDS011;2330;48.158;11.816;2023-09-19T11:58:55;8.20;;;0.70;;
4634;SDS011;2330;48.158;11.816;2023-09-19T12:01:33;1.10;;;1.00;;
4634;SDS011;2330;48.158;11.816;2023-09-19T12:04:02;2.00;;;1.20;;
4634;SDS011;2330;48.158;11.816;2023-09-19T12:06:31;3.83;;;1.33;;
4634;SDS011;2330;48.158;11.816;2023-09-19T12:09:02;2.73;;;1.00;;
4634;SDS011;2330;48.158;11.816;2023-09-19T12:11:33;5.10;;;1.30;;
4634;SDS011;2330;48.158;11.816;2023-09-19T12:14:10;1.00;;;0.90;;
4634;SDS011;2330;48.158;11.816;2023-09-19T12:16:37;6.50;;;1.60;;
4634;SDS011;2330;48.158;11.816;2023-09-19T12:19:20;1.20;;;0.90;;
4634;SDS011;2330;48.158;11.816;2023-09-19T12:22:02;2.90;;;1.10;;
4634;SDS011;2330;48.158;11.816;2023-09-19T12:24:32;0.80;;;0.80;;
4634;SDS011;2330;48.158;11.816;2023-09-19T12:27:02;1.00;;;0.90;;
4634;SDS011;2330;48.158;11.816;2023-09-19T12:29:32;2.57;;;0.70;;
4634;SDS011;2330;48.158;11.816;2023-09-19T12:32:36;1.53;;;1.03;;
4634;SDS011;2330;48.158;11.816;2023-09-19T12:35:07;1.67;;;1.00;;
4634;SDS011;2330;48.158;11.816;2023-09-19T12:37:37;5.43;;;1.30;;
4634;SDS011;2330;48.158;11.816;2023-09-19T12:40:12;1.07;;;0.90;;
4634;SDS011;2330;48.158;11.816;2023-09-19T12:42:44;1.97;;;1.23;;
4634;SDS011;2330;48.158;11.816;2023-09-19T12:45:12;1.40;;;0.80;;
4634;SDS011;2330;48.158;11.816;2023-09-19T12:48:17;1.47;;;1.30;;
4634;SDS011;2330;48.158;11.816;2023-09-19T12:51:06;1.67;;;1.30;;
4634;SDS011;2330;48.158;11.816;2023-09-19T12:53:39;2.23;;;1.20;;
4634;SDS011;2330;48.158;11.816;2023-09-19T12:56:10;1.83;;;0.77;;
4634;SDS011;2330;48.158;11.816;2023-09-19T12:58:56;2.73;;;1.20;;
4634;SDS011;2330;48.158;11.816;2023-09-19T13:01:27;0.80;;;0.70;;
4634;SDS011;2330;48.158;11.816;2023-09-19T13:06:48;1.30;;;1.13;;
4634;SDS011;2330;48.158;11.816;2023-09-19T13:09:16;1.10;;;1.00;;
4634;SDS011;2330;48.158;11.816;2023-09-19T13:11:46;2.17;;;1.37;;
4634;SDS011;2330;48.158;11.816;2023-09-19T13:14:17;3.00;;;1.00;;
4634;SDS011;2330;48.158;11.816;2023-09-19T13:25:09;1.50;;;1.30;;
4634;SDS011;2330;48.158;11.816;2023-09-19T13:27:56;1.20;;;0.97;;
4634;SDS011;2330;48.158;11.816;2023-09-19T13:30:24;4.03;;;1.10;;
4634;SDS011;2330;48.158;11.816;2023-09-19T13:32:53;5.83;;;1.30;;
4634;SDS011;2330;48.158;11.816;2023-09-19T13:35:36;2.40;;;1.00;;
4634;SDS011;2330;48.158;11.816;2023-09-19T13:38:06;1.23;;;1.03;;
4634;SDS011;2330;48.158;11.816;2023-09-19T13:40:38;2.90;;;1.10;;
4634;SDS011;2330;48.158;11.816;2023-09-19T13:43:06;4.20;;;1.20;;
4634;SDS011;2330;48.158;11.816;2023-09-19T13:45:33;1.00;;;0.73;;
4634;SDS011;2330;48.158;11.816;2023-09-19T13:48:00;1.87;;;1.10;;
4634;SDS011;2330;48.158;11.816;2023-09-19T13:50:27;3.53;;;1.13;;
4634;SDS011;2330;48.158;11.816;2023-09-19T13:52:55;5.53;;;1.40;;
4634;SDS011;2330;48.158;11.816;2023-09-19T13:55:22;2.47;;;0.90;;
4634;SDS011;2330;48.158;11.816;2023-09-19T13:57:49;2.17;;;1.27;;
4634;SDS011;2330;48.158;11.816;2023-09-19T14:00:21;2.50;;;1.00;;
4634;SDS011;2330;48.158;11.816;2023-09-19T14:02:49;5.33;;;1.00;;
4634;SDS011;2330;48.158;11.816;2023-09-19T14:05:17;3.43;;;1.43;;
4634;SDS011;2330;48.158;11.816;2023-09-19T14:07:45;3.37;;;1.17;;
4634;SDS011;2330;48.158;11.816;2023-09-19T14:10:12;7.60;;;1.17;;
4634;SDS011;2330;48.158;11.816;2023-09-19T14:12:39;2.20;;;1.00;;
4634;SDS011;2330;48.158;11.816;2023-09-19T14:15:11;3.07;;;1.13;;
4634;SDS011;2330;48.158;11.816;2023-09-19T14:17:38;3.07;;;1.17;;
4634;SDS011;2330;48.158;11.816;2023-09-19T14:20:05;3.17;;;0.90;;
4634;SDS011;2330;48.158;11.816;2023-09-19T14:22:33;4.23;;;0.97;;
4634;SDS011;2330;48.158;11.816;2023-09-19T14:25:00;2.03;;;1.00;;
4634;SDS011;2330;48.158;11.816;2023-09-19T14:27:27;3.33;;;1.30;;
4634;SDS011;2330;48.158;11.816;2023-09-19T14:29:54;7.30;;;1.33;;
4634;SDS011;2330;48.158;11.816;2023-09-19T14:32:21;3.27;;;1.40;;
4634;SDS011;2330;48.158;11.816;2023-09-19T14:34:48;1.10;;;1.00;;
4634;SDS011;2330;48.158;11.816;2023-09-19T14:37:15;3.30;;;1.70;;
4634;SDS011;2330;48.158;11.816;2023-09-19T14:39:47;7.90;;;1.47;;
4634;SDS011;2330;48.158;11.816;2023-09-19T14:42:14;1.63;;;1.00;;
4634;SDS011;2330;48.158;11.816;2023-09-19T14:44:43;2.80;;;1.20;;
4634;SDS011;2330;48.158;11.816;2023-09-19T14:47:10;0.90;;;0.80;;
4634;SDS011;2330;48.158;11.816;2023-09-19T14:49:40;1.67;;;0.90;;
4634;SDS011;2330;48.158;11.816;2023-09-19T14:52:07;2.17;;;1.10;;
4634;SDS011;2330;48.158;11.816;2023-09-19T14:54:35;3.43;;;0.90;;
4634;SDS011;2330;48.158;11.816;2023-09-19T14:57:04;1.30;;;1.10;;
4634;SDS011;2330;48.158;11.816;2023-09-19T14:59:31;5.23;;;0.90;;
4634;SDS011;2330;48.158;11.816;2023-09-19T15:01:58;3.13;;;1.13;;
4634;SDS011;2330;48.158;11.816;2023-09-19T15:04:25;3.13;;;1.27;;
4634;SDS011;2330;48.158;11.816;2023-09-19T15:06:54;2.70;;;1.33;;
4634;SDS011;2330;48.158;11.816;2023-09-19T15:09:21;2.67;;;1.10;;
4634;SDS011;2330;48.158;11.816;2023-09-19T15:11:52;2.10;;;1.23;;
4634;SDS011;2330;48.158;11.816;2023-09-19T15:14:20;1.87;;;1.50;;
4634;SDS011;2330;48.158;11.816;2023-09-19T15:16:51;2.30;;;1.37;;
4634;SDS011;2330;48.158;11.816;2023-09-19T15:19:18;3.07;;;0.97;;
4634;SDS011;2330;48.158;11.816;2023-09-19T15:21:45;1.07;;;0.97;;
4634;SDS011;2330;48.158;11.816;2023-09-19T15:24:12;4.87;;;1.30;;
4634;SDS011;2330;48.158;11.816;2023-09-19T15:26:38;2.17;;;1.30;;
4634;SDS011;2330;48.158;11.816;2023-09-19T15:29:06;1.97;;;1.33;;
4634;SDS011;2330;48.158;11.816;2023-09-19T15:31:33;1.63;;;1.00;;
4634;SDS011;2330;48.158;11.816;2023-09-19T15:34:03;1.23;;;1.13;;
4634;SDS011;2330;48.158;11.816;2023-09-19T15:36:30;1.67;;;1.10;;
4634;SDS011;2330;48.158;11.816;2023-09-19T15:41:28;6.03;;;1.10;;
4634;SDS011;2330;48.158;11.816;2023-09-19T15:44:03;4.77;;;1.00;;
4634;SDS011;2330;48.158;11.816;2023-09-19T15:46:32;1.60;;;1.20;;
4634;SDS011;2330;48.158;11.816;2023-09-19T15:49:03;1.90;;;1.10;;
4634;SDS011;2330;48.158;11.816;2023-09-19T15:51:30;1.90;;;0.70;;
4634;SDS011;2330;48.158;11.816;2023-09-19T15:53:57;1.10;;;1.00;;
4634;SDS011;2330;48.158;11.816;2023-09-19T15:56:26;1.10;;;0.87;;
4634;SDS011;2330;48.158;11.816;2023-09-19T15:58:53;3.03;;;1.07;;
4634;SDS011;2330;48.158;11.816;2023-09-19T16:01:21;1.20;;;1.03;;
4634;SDS011;2330;48.158;11.816;2023-09-19T16:03:50;2.17;;;1.10;;
4634;SDS011;2330;48.158;11.816;2023-09-19T16:06:23;7.10;;;1.23;;
4634;SDS011;2330;48.158;11.816;2023-09-19T16:08:53;1.97;;;1.13;;
4634;SDS011;2330;48.158;11.816;2023-09-19T16:11:22;1.90;;;1.17;;